createdAt,value
2019-04-25T00:00:48.307Z,9.69
2019-04-25T00:03:18.209Z,9.52
2019-04-25T00:05:45.869Z,9.61
2019-04-25T00:08:14.291Z,9.66
2019-04-25T00:10:43.754Z,9.69
2019-04-25T00:13:12.236Z,9.66
2019-04-25T00:15:42.171Z,9.66
2019-04-25T00:18:11.934Z,9.73
2019-04-25T00:20:42.657Z,9.77
2019-04-25T00:23:13.360Z,9.67
2019-04-25T00:25:45.844Z,9.55
2019-04-25T00:28:13.247Z,9.53
2019-04-25T00:30:43.294Z,9.59
2019-04-25T00:33:11.633Z,9.54
2019-04-25T00:35:42.302Z,9.54
2019-04-25T00:38:09.898Z,9.50
2019-04-25T00:40:38.171Z,9.20
2019-04-25T00:43:06.420Z,9.32
2019-04-25T00:45:34.706Z,9.40
2019-04-25T00:48:04.347Z,9.42
2019-04-25T00:50:33.054Z,9.53
2019-04-25T00:53:01.310Z,9.51
2019-04-25T00:55:31.025Z,9.50
2019-04-25T00:58:01.636Z,9.56
2019-04-25T01:00:32.901Z,9.66
2019-04-25T01:03:03.398Z,9.61
2019-04-25T01:05:31.725Z,9.57
2019-04-25T01:07:59.977Z,9.58
2019-04-25T01:10:28.268Z,9.59
2019-04-25T01:12:56.511Z,9.66
2019-04-25T01:15:24.759Z,9.65
2019-04-25T01:17:53.471Z,9.43
2019-04-25T01:20:21.768Z,9.11
2019-04-25T01:22:50.034Z,9.26
2019-04-25T01:25:18.278Z,9.25
2019-04-25T01:27:47.660Z,9.31
2019-04-25T01:30:18.367Z,9.24
2019-04-25T01:32:46.818Z,9.30
2019-04-25T01:35:33.516Z,9.36
2019-04-25T01:38:21.529Z,9.32
2019-04-25T01:40:54.442Z,9.27
2019-04-25T01:43:41.020Z,9.38
2019-04-25T01:46:09.618Z,9.48
2019-04-25T01:48:37.885Z,9.55
2019-04-25T01:51:06.152Z,9.22
2019-04-25T01:53:35.650Z,8.65
2019-04-25T01:56:07.632Z,8.71
2019-04-25T01:58:34.208Z,8.60
2019-04-25T02:01:03.174Z,8.44
2019-04-25T02:03:35.427Z,8.43
2019-04-25T02:06:04.921Z,8.53
2019-04-25T02:08:33.974Z,8.47
2019-04-25T02:11:22.071Z,8.02
2019-04-25T02:13:51.399Z,8.16
2019-04-25T02:16:19.897Z,7.79
2019-04-25T02:18:48.152Z,7.51
2019-04-25T02:21:16.402Z,7.86
2019-04-25T02:23:44.667Z,8.05
2019-04-25T02:26:16.789Z,8.11
2019-04-25T02:28:43.724Z,7.95
2019-04-25T02:31:12.037Z,7.96
2019-04-25T02:33:40.304Z,8.06
2019-04-25T02:36:08.999Z,7.83
2019-04-25T02:38:37.313Z,7.86
2019-04-25T02:41:08.344Z,7.92
2019-04-25T02:43:35.644Z,7.93
2019-04-25T02:46:08.130Z,8.07
2019-04-25T02:48:50.393Z,7.93
2019-04-25T02:51:38.646Z,7.99
2019-04-25T02:54:08.186Z,7.98
2019-04-25T02:56:38.852Z,8.01
2019-04-25T02:59:08.746Z,8.06
2019-04-25T03:01:36.512Z,7.80
2019-04-25T03:04:08.553Z,7.51
2019-04-25T03:06:35.180Z,7.58
2019-04-25T03:09:17.265Z,7.48
2019-04-25T03:11:47.576Z,7.50
2019-04-25T03:14:15.561Z,7.46
2019-04-25T03:16:44.820Z,7.56
2019-04-25T03:19:15.005Z,7.60
2019-04-25T03:21:45.302Z,7.60
2019-04-25T03:24:16.593Z,7.53
2019-04-25T03:26:44.306Z,7.19
2019-04-25T03:29:13.672Z,6.99
2019-04-25T03:31:44.745Z,7.09
2019-04-25T03:34:17.214Z,7.18
2019-04-25T03:36:43.869Z,7.41
2019-04-25T03:39:14.460Z,7.48
2019-04-25T03:41:42.256Z,7.54
2019-04-25T03:44:10.548Z,7.47
2019-04-25T03:46:38.793Z,7.39
2019-04-25T03:49:07.638Z,7.39
2019-04-25T03:51:36.017Z,7.30
2019-04-25T03:54:07.182Z,7.01
2019-04-25T03:56:34.269Z,6.64
2019-04-25T03:59:04.945Z,6.39
2019-04-25T04:01:34.126Z,6.42
2019-04-25T04:04:04.625Z,6.25
2019-04-25T04:06:33.982Z,6.36
2019-04-25T04:09:04.666Z,6.67
2019-04-25T04:11:33.737Z,6.67
2019-04-25T04:14:03.915Z,6.81
2019-04-25T04:16:34.257Z,6.80
2019-04-25T04:19:04.004Z,6.89
2019-04-25T04:21:53.208Z,6.98
2019-04-25T04:24:23.956Z,6.99
2019-04-25T04:27:03.499Z,7.02
2019-04-25T04:29:25.557Z,6.95
2019-04-25T04:31:54.382Z,6.80
2019-04-25T04:34:23.554Z,6.52
2019-04-25T04:36:51.237Z,6.41
2019-04-25T04:39:19.497Z,6.66
2019-04-25T04:41:47.769Z,6.78
2019-04-25T04:44:16.508Z,6.92
2019-04-25T04:46:44.790Z,6.98
2019-04-25T04:49:14.443Z,6.98
2019-04-25T04:51:44.387Z,7.05
2019-04-25T04:54:13.533Z,7.13
2019-04-25T04:56:43.838Z,6.95
2019-04-25T04:59:12.867Z,6.89
2019-04-25T05:01:59.833Z,6.63
2019-04-25T05:04:29.709Z,6.78
2019-04-25T05:07:15.434Z,6.98
2019-04-25T05:09:44.548Z,7.12
2019-04-25T05:12:13.439Z,6.96
2019-04-25T05:14:43.653Z,7.15
2019-04-25T05:17:12.226Z,7.22
2019-04-25T05:19:40.892Z,7.30
2019-04-25T05:22:09.172Z,7.38
2019-04-25T05:24:37.464Z,7.41
2019-04-25T05:27:05.740Z,7.25
2019-04-25T05:29:34.120Z,7.39
2019-04-25T05:32:04.133Z,7.19
2019-04-25T05:34:34.212Z,7.25
2019-04-25T05:37:03.855Z,7.20
2019-04-25T05:39:33.349Z,7.28
2019-04-25T05:42:04.317Z,7.46
2019-04-25T05:44:34.324Z,7.34
2019-04-25T05:47:04.141Z,7.53
2019-04-25T05:49:31.876Z,7.68
2019-04-25T05:52:00.156Z,7.65
2019-04-25T05:54:34.503Z,7.87
2019-04-25T05:57:03.718Z,8.06
2019-04-25T05:59:33.541Z,8.12
2019-04-25T06:02:01.381Z,8.22
2019-04-25T06:04:29.647Z,8.31
2019-04-25T06:06:57.930Z,8.28
2019-04-25T06:09:36.487Z,8.52
2019-04-25T06:14:59.144Z,8.63
2019-04-25T06:17:47.333Z,8.81
2019-04-25T06:20:17.231Z,8.98
2019-04-25T06:22:50.081Z,9.22
2019-04-25T06:25:21.808Z,9.25
2019-04-25T06:27:57.222Z,9.40
2019-04-25T06:30:24.948Z,9.43
2019-04-25T06:32:53.372Z,9.61
2019-04-25T06:35:24.494Z,9.57
2019-04-25T06:37:51.586Z,9.73
2019-04-25T06:40:20.570Z,9.80
2019-04-25T06:42:48.904Z,9.99
2019-04-25T06:45:18.897Z,10.03
2019-04-25T06:47:48.812Z,10.22
2019-04-25T06:50:17.063Z,10.24
2019-04-25T06:52:45.349Z,10.37
2019-04-25T06:55:14.085Z,10.47
2019-04-25T06:57:44.093Z,10.70
2019-04-25T07:00:14.264Z,10.70
2019-04-25T07:02:43.542Z,10.83
2019-04-25T07:05:24.500Z,11.06
2019-04-25T07:07:45.263Z,11.18
2019-04-25T07:10:13.342Z,11.39
2019-04-25T07:12:41.153Z,11.51
2019-04-25T07:15:09.761Z,11.76
2019-04-25T07:17:38.019Z,11.86
2019-04-25T07:20:07.539Z,11.98
2019-04-25T07:22:36.255Z,12.17
2019-04-25T07:25:05.402Z,12.38
2019-04-25T07:27:46.986Z,12.50
2019-04-25T07:30:48.444Z,12.69
2019-04-25T07:33:15.067Z,12.78
2019-04-25T07:35:43.526Z,12.91
2019-04-25T07:38:11.826Z,13.04
2019-04-25T07:40:40.090Z,13.13
2019-04-25T07:43:08.413Z,13.25
2019-04-25T07:45:36.667Z,13.37
2019-04-25T07:48:04.920Z,13.47
2019-04-25T07:50:34.313Z,13.63
2019-04-25T07:53:03.604Z,13.79
2019-04-25T07:55:35.899Z,13.92
2019-04-25T07:58:03.238Z,14.06
2019-04-25T08:00:31.500Z,14.18
2019-04-25T08:02:59.752Z,14.35
2019-04-25T08:05:28.048Z,14.49
2019-04-25T08:07:56.292Z,14.66
2019-04-25T08:10:27.880Z,14.86
2019-04-25T08:12:56.382Z,14.96
2019-04-25T08:15:29.797Z,15.11
2019-04-25T08:18:05.844Z,15.23
2019-04-25T08:20:34.787Z,15.50
2019-04-25T08:23:04.353Z,15.64
2019-04-25T08:25:33.512Z,15.88
2019-04-25T08:28:03.827Z,16.13
2019-04-25T08:30:34.182Z,16.46
2019-04-25T08:33:03.858Z,16.67
2019-04-25T08:35:34.192Z,16.77
2019-04-25T08:38:03.424Z,16.92
2019-04-25T08:40:40.451Z,17.03
2019-04-25T08:43:08.796Z,17.21
2019-04-25T08:45:38.372Z,17.41
2019-04-25T08:48:06.861Z,17.66
2019-04-25T08:50:46.033Z,17.83
2019-04-25T08:53:15.424Z,18.01
2019-04-25T08:55:48.087Z,18.19
2019-04-25T08:58:18.016Z,18.23
2019-04-25T09:00:58.128Z,18.38
2019-04-25T09:03:38.007Z,18.56
2019-04-25T09:06:06.592Z,18.58
2019-04-25T09:08:35.978Z,18.78
2019-04-25T09:11:04.876Z,18.95
2019-04-25T09:13:35.810Z,19.15
2019-04-25T09:16:03.608Z,19.32
2019-04-25T09:18:31.953Z,19.52
2019-04-25T09:21:00.231Z,19.80
2019-04-25T09:23:28.492Z,20.02
2019-04-25T09:25:56.779Z,20.29
2019-04-25T09:28:25.023Z,20.60
2019-04-25T09:30:54.007Z,21.01
2019-04-25T09:33:23.261Z,21.18
2019-04-25T09:35:51.594Z,21.32
2019-04-25T09:38:19.859Z,21.40
2019-04-25T09:40:48.181Z,21.52
2019-04-25T09:43:16.446Z,21.67
2019-04-25T09:45:53.253Z,21.96
2019-04-25T09:48:23.343Z,22.03
2019-04-25T09:51:05.678Z,22.03
2019-04-25T09:53:38.914Z,22.42
2019-04-25T09:56:09.447Z,22.94
2019-04-25T09:58:42.641Z,23.49
2019-04-25T10:01:16.035Z,24.01
2019-04-25T10:03:45.417Z,24.03
2019-04-25T10:06:15.062Z,22.48
2019-04-25T10:08:45.363Z,21.91
2019-04-25T10:11:14.802Z,21.84
2019-04-25T10:13:46.624Z,22.01
2019-04-25T10:16:14.934Z,22.13
2019-04-25T10:18:43.756Z,21.93
2019-04-25T10:21:14.308Z,21.97
2019-04-25T10:23:44.076Z,22.02
2019-04-25T10:26:12.714Z,22.05
2019-04-25T10:28:41.640Z,21.55
2019-04-25T10:31:10.557Z,21.89
2019-04-25T10:33:39.722Z,22.01
2019-04-25T10:36:08.372Z,22.24
2019-04-25T10:38:37.586Z,22.45
2019-04-25T10:41:05.843Z,22.30
2019-04-25T10:43:34.314Z,22.39
2019-04-25T10:46:03.497Z,22.54
2019-04-25T10:48:34.301Z,22.19
2019-04-25T10:51:04.132Z,22.07
2019-04-25T10:53:33.838Z,21.72
2019-04-25T10:56:05.601Z,21.51
2019-04-25T10:58:33.794Z,21.36
2019-04-25T11:01:02.527Z,21.41
2019-04-25T11:03:33.769Z,21.17
2019-04-25T11:06:03.802Z,21.21
2019-04-25T11:08:33.857Z,21.18
2019-04-25T11:11:03.770Z,21.07
2019-04-25T11:13:33.925Z,21.05
2019-04-25T11:16:03.540Z,21.13
2019-04-25T11:18:31.875Z,21.23
2019-04-25T11:21:00.141Z,21.39
2019-04-25T11:23:29.401Z,21.52
2019-04-25T11:25:57.665Z,21.64
2019-04-25T11:28:25.934Z,21.41
2019-04-25T11:30:55.514Z,21.25
2019-04-25T11:33:24.710Z,21.87
2019-04-25T11:35:53.577Z,21.68
2019-04-25T11:38:27.765Z,21.53
2019-04-25T11:41:03.986Z,21.63
2019-04-25T11:43:33.728Z,21.83
2019-04-25T11:46:04.815Z,21.98
2019-04-25T11:48:34.011Z,22.19
2019-04-25T11:51:03.669Z,22.24
2019-04-25T11:53:33.783Z,22.18
2019-04-25T11:56:03.647Z,21.89
2019-04-25T11:58:32.117Z,21.72
2019-04-25T12:01:00.376Z,22.02
2019-04-25T12:03:28.677Z,21.99
2019-04-25T12:05:56.935Z,21.90
2019-04-25T12:08:25.212Z,21.96
2019-04-25T12:10:54.806Z,21.65
2019-04-25T12:13:24.244Z,21.70
2019-04-25T12:15:54.546Z,21.89
2019-04-25T12:18:22.738Z,21.73
2019-04-25T12:20:51.038Z,21.72
2019-04-25T12:23:19.304Z,21.83
2019-04-25T12:25:47.627Z,22.04
2019-04-25T12:28:15.931Z,22.15
2019-04-25T12:30:45.819Z,22.81
2019-04-25T12:33:21.004Z,22.90
2019-04-25T12:35:48.227Z,22.90
2019-04-25T12:38:16.522Z,23.13
2019-04-25T12:40:46.152Z,23.89
2019-04-25T12:43:14.793Z,23.80
2019-04-25T12:45:45.658Z,23.51
2019-04-25T12:48:15.940Z,23.50
2019-04-25T12:50:44.268Z,23.94
2019-04-25T12:53:13.951Z,25.04
2019-04-25T12:55:42.182Z,25.40
2019-04-25T12:58:10.474Z,25.22
2019-04-25T13:00:47.995Z,25.48
2019-04-25T13:03:08.815Z,25.57
2019-04-25T13:05:37.104Z,25.62
2019-04-25T13:08:05.422Z,25.83
2019-04-25T13:10:34.350Z,26.04
2019-04-25T13:13:03.973Z,25.53
2019-04-25T13:15:33.460Z,25.91
2019-04-25T13:18:03.474Z,26.07
2019-04-25T13:20:31.773Z,26.39
2019-04-25T13:23:00.601Z,26.34
2019-04-25T13:25:29.120Z,25.32
2019-04-25T13:28:11.014Z,24.64
2019-04-25T13:31:03.953Z,24.21
2019-04-25T13:33:30.786Z,24.22
2019-04-25T13:36:18.618Z,24.13
2019-04-25T13:38:47.001Z,24.09
2019-04-25T13:41:15.243Z,24.20
2019-04-25T13:43:43.546Z,24.00
2019-04-25T13:46:15.830Z,24.21
2019-04-25T13:48:43.187Z,24.59
2019-04-25T13:51:11.505Z,24.93
2019-04-25T13:53:40.141Z,25.33
2019-04-25T13:56:08.532Z,25.94
2019-04-25T13:58:37.200Z,26.32
2019-04-25T14:01:13.125Z,25.89
2019-04-25T14:03:37.523Z,25.88
2019-04-25T14:06:06.070Z,26.30
2019-04-25T14:08:34.311Z,25.76
2019-04-25T14:11:04.977Z,25.00
2019-04-25T14:13:32.643Z,24.46
2019-04-25T14:16:04.981Z,24.48
2019-04-25T14:18:50.985Z,24.25
2019-04-25T14:21:20.825Z,24.49
2019-04-25T14:23:49.937Z,25.51
2019-04-25T14:26:18.220Z,26.11
2019-04-25T14:28:46.550Z,26.41
2019-04-25T14:31:30.447Z,26.18
2019-04-25T14:33:46.520Z,26.40
2019-04-25T14:36:14.964Z,25.47
2019-04-25T14:38:43.231Z,24.89
2019-04-25T14:41:11.993Z,24.82
2019-04-25T14:43:40.248Z,24.96
2019-04-25T14:46:08.550Z,24.92
2019-04-25T14:48:36.800Z,24.87
2019-04-25T14:51:05.152Z,25.09
2019-04-25T14:53:34.089Z,24.98
2019-04-25T14:56:23.705Z,24.81
2019-04-25T14:58:51.981Z,24.33
2019-04-25T15:01:22.703Z,24.00
2019-04-25T15:03:51.371Z,23.57
2019-04-25T15:06:19.717Z,23.28
2019-04-25T15:08:48.068Z,23.16
2019-04-25T15:11:16.419Z,23.13
2019-04-25T15:13:44.704Z,22.96
2019-04-25T15:16:13.001Z,22.84
2019-04-25T15:18:46.921Z,22.90
2019-04-25T15:21:12.035Z,22.73
2019-04-25T15:23:40.288Z,22.72
2019-04-25T15:26:08.620Z,22.64
2019-04-25T15:28:36.878Z,22.66
2019-04-25T15:31:05.324Z,22.69
2019-04-25T15:33:33.575Z,22.65
2019-04-25T15:36:03.492Z,22.68
2019-04-25T15:38:36.090Z,22.66
2019-04-25T15:41:11.724Z,22.66
2019-04-25T15:43:44.618Z,22.63
2019-04-25T15:46:14.625Z,22.57
2019-04-25T15:48:42.876Z,22.56
2019-04-25T15:51:11.172Z,22.48
2019-04-25T15:53:40.627Z,22.37
2019-04-25T15:56:08.933Z,22.13
2019-04-25T15:58:37.406Z,21.98
2019-04-25T16:01:06.675Z,21.77
2019-04-25T16:03:35.263Z,21.73
2019-04-25T16:06:04.031Z,21.52
2019-04-25T16:08:33.003Z,21.44
2019-04-25T16:11:01.358Z,21.26
2019-04-25T16:13:30.179Z,21.25
2019-04-25T16:15:58.444Z,21.20
2019-04-25T16:18:27.297Z,21.13
2019-04-25T16:20:54.943Z,20.98
2019-04-25T16:23:23.211Z,20.91
2019-04-25T16:25:51.486Z,20.85
2019-04-25T16:28:19.785Z,20.84
2019-04-25T16:30:48.213Z,20.75
2019-04-25T16:33:17.362Z,20.75
2019-04-25T16:35:45.705Z,20.76
2019-04-25T16:38:14.544Z,20.68
2019-04-25T16:40:42.810Z,20.63
2019-04-25T16:43:12.755Z,20.59
2019-04-25T16:45:41.386Z,20.58
2019-04-25T16:48:09.818Z,20.62
2019-04-25T16:50:38.081Z,20.56
2019-04-25T16:53:06.359Z,20.50
2019-04-25T16:55:34.693Z,20.53
2019-04-25T16:58:03.404Z,20.54
2019-04-25T17:00:36.270Z,20.46
2019-04-25T17:03:04.554Z,20.51
2019-04-25T17:05:33.282Z,20.51
2019-04-25T17:08:01.562Z,20.45
2019-04-25T17:10:30.305Z,20.50
2019-04-25T17:12:59.588Z,20.55
2019-04-25T17:15:30.513Z,20.49
2019-04-25T17:18:18.475Z,20.49
2019-04-25T17:20:51.323Z,20.54
2019-04-25T17:23:19.599Z,20.51
2019-04-25T17:25:47.858Z,20.38
2019-04-25T17:28:16.434Z,20.37
2019-04-25T17:30:46.326Z,20.37
2019-04-25T17:33:25.277Z,20.40
2019-04-25T17:36:00.953Z,20.42
2019-04-25T17:38:40.189Z,20.24
2019-04-25T17:41:08.454Z,20.26
2019-04-25T17:43:36.748Z,20.25
2019-04-25T17:46:05.887Z,20.28
2019-04-25T17:48:34.188Z,20.23
2019-04-25T17:51:02.455Z,20.15
2019-04-25T17:53:30.750Z,20.13
2019-04-25T17:55:59.900Z,20.11
2019-04-25T17:58:28.182Z,20.10
2019-04-25T18:00:56.543Z,19.88
2019-04-25T18:03:24.822Z,19.68
2019-04-25T18:05:53.090Z,19.71
2019-04-25T18:08:23.716Z,19.67
2019-04-25T18:10:51.410Z,19.47
2019-04-25T18:13:19.697Z,19.25
2019-04-25T18:18:59.182Z,19.09
2019-04-25T18:21:27.992Z,19.01
2019-04-25T18:23:57.916Z,19.03
2019-04-25T18:26:43.943Z,18.98
2019-04-25T18:29:13.861Z,18.94
2019-04-25T18:31:42.128Z,18.89
2019-04-25T18:34:12.065Z,18.72
2019-04-25T18:36:42.893Z,18.66
2019-04-25T18:39:18.732Z,18.50
2019-04-25T18:41:51.622Z,18.46
2019-04-25T18:44:20.008Z,18.46
2019-04-25T18:46:48.637Z,18.46
2019-04-25T18:49:16.917Z,18.05
2019-04-25T18:51:56.484Z,18.08
2019-04-25T18:54:27.492Z,18.13
2019-04-25T18:56:57.392Z,17.89
2019-04-25T18:59:30.069Z,17.75
2019-04-25T19:01:59.956Z,17.46
2019-04-25T19:04:46.978Z,17.25
2019-04-25T19:07:22.520Z,17.00
2019-04-25T19:09:45.667Z,16.82
2019-04-25T19:12:13.926Z,16.92
2019-04-25T19:14:43.145Z,16.65
2019-04-25T19:17:11.515Z,16.49
2019-04-25T19:19:39.839Z,16.29
2019-04-25T19:22:08.122Z,16.24
2019-04-25T19:24:36.394Z,16.24
2019-04-25T19:27:04.721Z,16.23
2019-04-25T19:29:32.966Z,16.28
2019-04-25T19:32:01.253Z,16.25
2019-04-25T19:34:29.517Z,16.27
2019-04-25T19:36:57.827Z,16.26
2019-04-25T19:39:27.691Z,16.24
2019-04-25T19:42:09.784Z,15.99
2019-04-25T19:44:38.031Z,16.04
2019-04-25T19:47:06.317Z,15.98
2019-04-25T19:49:34.714Z,15.97
2019-04-25T19:52:02.993Z,16.11
2019-04-25T19:54:31.246Z,16.03
2019-04-25T19:56:59.533Z,15.85
2019-04-25T19:59:27.795Z,15.84
2019-04-25T20:01:57.700Z,15.41
2019-04-25T20:04:30.397Z,15.47
2019-04-25T20:07:12.334Z,14.99
2019-04-25T20:09:47.794Z,14.95
2019-04-25T20:12:16.142Z,15.09
2019-04-25T20:14:45.439Z,14.76
2019-04-25T20:17:13.841Z,14.78
2019-04-25T20:19:42.098Z,14.35
2019-04-25T20:22:10.383Z,14.35
2019-04-25T20:24:38.633Z,14.40
2019-04-25T20:27:06.912Z,14.42
2019-04-25T20:29:35.170Z,14.46
2019-04-25T20:32:03.460Z,14.31
2019-04-25T20:34:31.705Z,14.08
2019-04-25T20:36:59.980Z,13.67
2019-04-25T20:39:28.235Z,13.78
2019-04-25T20:41:56.519Z,13.77
2019-04-25T20:44:24.767Z,13.52
2019-04-25T20:46:53.045Z,13.58
2019-04-25T20:49:21.305Z,13.60
2019-04-25T20:51:50.550Z,13.75
2019-04-25T20:54:18.922Z,13.89
2019-04-25T20:56:48.200Z,13.98
2019-04-25T20:59:17.331Z,14.14
2019-04-25T21:01:45.642Z,13.88
2019-04-25T21:04:32.041Z,13.65
2019-04-25T21:07:01.241Z,13.42
2019-04-25T21:09:29.560Z,13.08
2019-04-25T21:11:58.118Z,13.07
2019-04-25T21:14:42.993Z,13.15
2019-04-25T21:17:27.669Z,13.34
2019-04-25T21:19:58.453Z,12.75
2019-04-25T21:22:26.814Z,12.66
2019-04-25T21:24:55.839Z,12.62
2019-04-25T21:27:24.231Z,12.71
2019-04-25T21:29:53.363Z,12.79
2019-04-25T21:32:23.001Z,12.71
2019-04-25T21:34:51.692Z,12.16
2019-04-25T21:37:21.190Z,12.08
2019-04-25T21:39:58.036Z,12.35
2019-04-25T21:42:32.893Z,12.46
2019-04-25T21:45:01.324Z,12.42
2019-04-25T21:47:29.987Z,12.36
2019-04-25T21:49:58.598Z,11.75
2019-04-25T21:52:27.272Z,11.34
2019-04-25T21:54:55.835Z,11.22
2019-04-25T21:57:24.373Z,11.19
2019-04-25T22:00:00.393Z,11.23
2019-04-25T22:02:23.021Z,11.49
2019-04-25T22:04:51.579Z,11.67
2019-04-25T22:07:20.143Z,11.59
2019-04-25T22:09:48.674Z,11.13
2019-04-25T22:12:17.291Z,11.25
2019-04-25T22:14:45.548Z,11.57
2019-04-25T22:17:14.007Z,11.61
2019-04-25T22:19:42.515Z,11.40
2019-04-25T22:22:10.979Z,11.60
2019-04-25T22:24:39.238Z,11.65
2019-04-25T22:27:09.163Z,11.62
2019-04-25T22:29:39.062Z,11.47
2019-04-25T22:32:14.646Z,11.37
2019-04-25T22:34:52.577Z,11.56
2019-04-25T22:37:17.947Z,11.51
2019-04-25T22:39:46.383Z,10.96
2019-04-25T22:42:14.670Z,10.86
2019-04-25T22:44:42.988Z,10.96
2019-04-25T22:47:11.267Z,10.99
2019-04-25T22:49:39.524Z,10.88
2019-04-25T22:52:09.116Z,10.66
2019-04-25T22:54:37.651Z,10.76
2019-04-25T22:57:06.394Z,10.94
2019-04-25T22:59:34.981Z,11.02
2019-04-25T23:02:05.459Z,11.09
2019-04-25T23:04:35.680Z,11.08
2019-04-25T23:07:04.010Z,10.96
2019-04-25T23:09:33.913Z,10.88
2019-04-25T23:12:02.443Z,10.64
2019-04-25T23:14:31.575Z,10.62
2019-04-25T23:16:59.830Z,10.70
2019-04-25T23:19:28.111Z,10.69
2019-04-25T23:21:56.438Z,10.70
2019-04-25T23:24:26.356Z,10.72
2019-04-25T23:26:56.526Z,10.54
2019-04-25T23:29:24.791Z,10.29
2019-04-25T23:31:53.047Z,10.20
2019-04-25T23:34:21.792Z,10.36
2019-04-25T23:36:50.048Z,10.18
2019-04-25T23:39:18.498Z,10.03
2019-04-25T23:41:46.754Z,10.09
2019-04-25T23:44:15.027Z,10.11
2019-04-25T23:46:44.274Z,10.07
2019-04-25T23:49:12.771Z,9.92
2019-04-25T23:51:40.970Z,9.60
2019-04-25T23:54:09.241Z,9.60
2019-04-25T23:56:37.494Z,9.53
2019-04-25T23:59:06.044Z,9.59
